This is the latest recevied weather packets stored in our database for station/object AA0PB. If no packets are shown the sender has not sent any weather packets the latest 10 day(s).
| Time | Temp. | Humidity | Pressure | Rain* | Wind** | Luminosity | Snow |
|---|---|---|---|---|---|---|---|
| 1777779629 | 17.78° C | 78% | 1013.1 hPa | 0 mm | - | 0 W/m² | - |
| 1777779326 | 17.78° C | 78% | 1013 hPa | 0 mm | - | 0 W/m² | - |
| 1777779024 | 17.78° C | 77% | 1013 hPa | 0 mm | - | 1 W/m² | - |
| 1777778722 | 17.78° C | 77% | 1013 hPa | 0 mm | - | 2 W/m² | - |
| 1777778420 | 17.78° C | 77% | 1013.3 hPa | 0 mm | - | 4 W/m² | - |
| 1777778117 | 17.78° C | 77% | 1012.7 hPa | 0 mm | - | 6 W/m² | - |
| 1777777814 | 17.78° C | 76% | 1012.9 hPa | 0 mm | - | 8 W/m² | - |
| 1777777510 | 18.33° C | 75% | 1013 hPa | 0 mm | - | 12 W/m² | - |
| 1777777208 | 18.33° C | 75% | 1012.9 hPa | 0 mm | - | 16 W/m² | - |
| 1777776904 | 18.89° C | 76% | 1012.9 hPa | 0 mm | - | 21 W/m² | - |
| 1777776602 | 18.89° C | 76% | 1012.8 hPa | 0 mm | - | 24 W/m² | - |
| 1777776298 | 19.44° C | 74% | 1012.8 hPa | 0 mm | - | 29 W/m² | - |
| 1777775995 | 20° C | 74% | 1012.7 hPa | 0 mm | - | 34 W/m² | - |
| 1777775692 | 20° C | 73% | 1012.7 hPa | 0 mm | - | 37 W/m² | - |
| 1777775389 | 20.56° C | 73% | 1012.7 hPa | 0 mm | - | 45 W/m² | - |
| 1777775084 | 20° C | 74% | 1012.5 hPa | 0 mm | - | 47 W/m² | - |
| 1777774780 | 20° C | 75% | 1012.5 hPa | 0 mm | - | 50 W/m² | - |
| 1777774476 | 20° C | 75% | 1012.6 hPa | 0 mm | - | 55 W/m² | - |
| 1777774174 | 20° C | 74% | 1012.3 hPa | 0 mm | - | 61 W/m² | - |
| 1777773871 | 20.56° C | 73% | 1012.1 hPa | 0 mm | - | 67 W/m² | - |
| 1777773568 | 20.56° C | 72% | 1012 hPa | 0 mm | - | 72 W/m² | - |
| 1777773264 | 20.56° C | 72% | 1012 hPa | 0 mm | - | 77 W/m² | - |
| 1777772961 | 20.56° C | 72% | 1012 hPa | 0 mm | - | 82 W/m² | - |
| 1777772658 | 20.56° C | 73% | 1012 hPa | 0 mm | - | 88 W/m² | - |
| 1777772356 | 20.56° C | 72% | 1012.1 hPa | 0 mm | - | 92 W/m² | - |
* Rain latest hour (hover to see other rain measurements)
** Current wind speed in m/s (hover to see current wind gust speed)